Time;durP1;ratioP1;P1;durP2;ratioP2;P2;SDS_P1;SDS_P2;PMS_P1;PMS_P2;Temp;Humidity;BMP_temperature;BMP_pressure;BME280_temperature;BME280_humidity;BME280_pressure;Samples;Min_cycle;Max_cycle;Signal;HPM_P1;HPM_P2
2022/10/29 00:00:56;;;;;;;24.57;9.10;;;14.80;99.90;;;;;;5055952;28;20209;-81
2022/10/29 00:03:23;;;;;;;29.43;8.90;;;14.80;99.90;;;;;;5054808;28;20216;-81
2022/10/29 00:06:10;;;;;;;25.93;8.40;;;14.70;99.90;;;;;;5055169;28;20214;-82
2022/10/29 00:08:40;;;;;;;22.07;8.60;;;14.70;99.90;;;;;;5058812;28;20208;-82
2022/10/29 00:11:13;;;;;;;20.47;7.90;;;14.60;99.90;;;;;;5068342;28;20208;-82
2022/10/29 00:13:41;;;;;;;21.93;9.33;;;14.60;99.90;;;;;;5052491;28;20200;-82
2022/10/29 00:16:18;;;;;;;25.00;9.53;;;14.60;99.90;;;;;;5056157;28;20243;-81
2022/10/29 00:18:47;;;;;;;24.73;8.23;;;14.50;99.90;;;;;;5058105;28;20614;-82
2022/10/29 00:21:18;;;;;;;24.33;9.53;;;14.50;99.90;;;;;;5044398;28;20201;-82
2022/10/29 00:23:46;;;;;;;30.17;10.67;;;14.50;99.90;;;;;;5054942;28;20206;-82
2022/10/29 00:26:13;;;;;;;36.33;10.00;;;14.40;99.90;;;;;;5047903;28;20541;-81
2022/10/29 00:28:40;;;;;;;27.73;11.60;;;14.40;99.90;;;;;;5056887;28;20212;-82
2022/10/29 00:31:12;;;;;;;35.73;10.23;;;14.40;99.90;;;;;;5052414;28;20198;-82
2022/10/29 00:33:39;;;;;;;24.57;8.97;;;14.40;99.90;;;;;;5042833;28;20246;-81
2022/10/29 00:36:24;;;;;;;26.03;9.10;;;14.40;99.90;;;;;;5047638;28;20304;-81
2022/10/29 00:38:51;;;;;;;29.63;10.20;;;14.40;99.90;;;;;;5064072;28;20563;-81
2022/10/29 00:41:25;;;;;;;28.63;10.80;;;14.30;99.90;;;;;;5057874;28;20197;-82
2022/10/29 00:44:13;;;;;;;34.50;11.00;;;14.30;99.90;;;;;;5043539;28;20223;-81
2022/10/29 00:46:45;;;;;;;29.80;9.50;;;14.30;99.90;;;;;;5036976;28;20304;-81
2022/10/29 00:49:12;;;;;;;38.33;11.50;;;14.30;99.90;;;;;;5053572;28;20316;-80
2022/10/29 00:51:42;;;;;;;31.53;10.20;;;14.30;99.90;;;;;;5050720;28;20560;-81
2022/10/29 00:54:12;;;;;;;33.97;10.40;;;14.30;99.90;;;;;;5059584;28;20229;-81
2022/10/29 00:57:09;;;;;;;28.43;9.20;;;14.20;99.90;;;;;;5057358;28;20201;-82
2022/10/29 00:59:36;;;;;;;29.13;9.87;;;14.30;99.90;;;;;;5061071;28;20238;-82
2022/10/29 01:02:03;;;;;;;32.60;9.20;;;14.10;99.90;;;;;;5061197;28;20209;-81
2022/10/29 01:04:30;;;;;;;36.57;9.80;;;14.30;99.90;;;;;;5055915;28;20221;-82
2022/10/29 01:07:08;;;;;;;29.20;9.43;;;14.30;99.90;;;;;;5070466;28;20220;-81
2022/10/29 01:09:52;;;;;;;35.70;10.17;;;14.30;99.90;;;;;;5067485;28;20240;-82
2022/10/29 01:12:31;;;;;;;34.57;9.97;;;14.30;99.90;;;;;;5052091;28;20268;-83
2022/10/29 01:15:09;;;;;;;27.40;9.40;;;14.30;99.90;;;;;;5047370;28;20236;-81
2022/10/29 01:18:02;;;;;;;30.43;11.17;;;14.30;99.90;;;;;;5057402;28;20236;-82
2022/10/29 01:20:50;;;;;;;26.90;9.30;;;14.30;99.90;;;;;;5066093;28;20276;-82
2022/10/29 01:23:36;;;;;;;36.20;10.10;;;14.30;99.90;;;;;;5081587;28;20232;-81
2022/10/29 01:26:22;;;;;;;27.30;9.70;;;14.20;99.90;;;;;;5048450;28;20213;-82
2022/10/29 01:29:27;;;;;;;31.30;10.03;;;14.20;99.90;;;;;;5052563;28;20221;-82
2022/10/29 01:32:10;;;;;;;31.63;9.93;;;14.20;99.90;;;;;;5073373;28;20209;-82
2022/10/29 01:35:06;;;;;;;27.77;9.87;;;14.20;99.90;;;;;;5040563;28;20226;-83
2022/10/29 01:38:10;;;;;;;28.10;9.10;;;14.20;99.90;;;;;;5061461;28;20201;-81
2022/10/29 01:40:54;;;;;;;28.90;9.87;;;14.20;99.90;;;;;;5052072;28;20239;-82
2022/10/29 01:43:43;;;;;;;29.60;8.50;;;14.20;99.90;;;;;;5058595;28;20227;-81
2022/10/29 01:46:16;;;;;;;19.40;7.90;;;14.10;99.90;;;;;;5035709;28;20232;-80
2022/10/29 01:48:47;;;;;;;29.97;10.23;;;14.10;99.90;;;;;;5061147;28;20296;-81
2022/10/29 01:51:21;;;;;;;31.33;10.13;;;14.00;99.90;;;;;;5037023;28;20264;-83
2022/10/29 01:53:49;;;;;;;24.97;9.93;;;14.00;99.90;;;;;;5047477;28;20293;-82
2022/10/29 01:56:16;;;;;;;25.90;8.90;;;13.90;99.90;;;;;;5041935;28;20220;-81
2022/10/29 01:58:47;;;;;;;27.23;9.83;;;13.90;99.90;;;;;;5054725;28;20678;-80
2022/10/29 02:01:30;;;;;;;30.90;10.73;;;13.80;99.90;;;;;;5066980;28;20269;-82
2022/10/29 02:04:43;;;;;;;29.63;9.47;;;13.80;99.90;;;;;;5045393;28;20220;-82
2022/10/29 02:07:25;;;;;;;28.03;9.30;;;13.80;99.90;;;;;;5053471;28;20239;-81
2022/10/29 02:10:18;;;;;;;38.77;9.20;;;13.70;99.90;;;;;;5062840;28;20193;-81
2022/10/29 02:12:55;;;;;;;31.37;8.90;;;13.60;99.90;;;;;;5064800;28;20347;-80
2022/10/29 02:15:42;;;;;;;20.73;8.00;;;13.60;99.90;;;;;;5061654;28;20220;-81
2022/10/29 02:18:11;;;;;;;31.77;9.30;;;13.60;99.90;;;;;;5038302;28;20759;-80
2022/10/29 02:20:42;;;;;;;36.77;9.97;;;13.50;99.90;;;;;;5037845;28;20256;-82
2022/10/29 02:23:14;;;;;;;26.77;8.80;;;13.50;99.90;;;;;;5037832;28;20221;-80
2022/10/29 02:25:41;;;;;;;31.37;8.70;;;13.50;99.90;;;;;;5052202;28;20229;-81
2022/10/29 02:28:11;;;;;;;30.40;9.63;;;13.40;99.90;;;;;;5039380;28;20318;-81
2022/10/29 02:30:39;;;;;;;33.27;8.90;;;13.40;99.90;;;;;;5060270;28;20199;-81
2022/10/29 02:33:06;;;;;;;32.97;9.70;;;13.40;99.90;;;;;;5061457;28;20213;-82
2022/10/29 02:35:33;;;;;;;35.13;9.80;;;13.40;99.90;;;;;;5049992;28;20252;-81
2022/10/29 02:38:00;;;;;;;25.70;8.97;;;13.30;99.90;;;;;;5057088;28;20202;-80
2022/10/29 02:40:32;;;;;;;27.17;8.60;;;13.30;99.90;;;;;;5044930;28;20296;-80
2022/10/29 02:43:04;;;;;;;28.40;9.90;;;13.30;99.90;;;;;;5033928;28;20201;-81
2022/10/29 02:45:31;;;;;;;40.13;10.37;;;13.30;99.90;;;;;;5037787;28;20251;-81
2022/10/29 02:47:58;;;;;;;35.63;10.83;;;13.30;99.90;;;;;;5055788;28;20308;-81
2022/10/29 02:50:26;;;;;;;34.33;10.43;;;13.40;99.90;;;;;;5051640;28;20221;-81
2022/10/29 02:52:53;;;;;;;21.13;8.70;;;13.30;99.90;;;;;;5046205;28;20722;-82
2022/10/29 02:55:22;;;;;;;25.50;8.70;;;13.30;99.90;;;;;;5036523;28;20237;-80
2022/10/29 02:57:49;;;;;;;27.93;9.43;;;13.20;99.90;;;;;;5053901;28;20209;-80
2022/10/29 03:00:16;;;;;;;24.07;9.40;;;13.20;99.90;;;;;;5051099;28;20217;-82
2022/10/29 03:02:43;;;;;;;29.63;9.30;;;13.20;99.90;;;;;;5051074;28;20194;-82
2022/10/29 03:05:10;;;;;;;25.87;8.90;;;13.20;99.90;;;;;;5032645;28;20623;-81
2022/10/29 03:07:38;;;;;;;27.03;9.40;;;13.10;99.90;;;;;;5052682;28;20693;-81
2022/10/29 03:10:06;;;;;;;30.30;9.80;;;13.10;99.90;;;;;;5053483;28;20193;-82
2022/10/29 03:12:33;;;;;;;24.33;9.90;;;13.10;99.90;;;;;;5053810;28;20284;-81
2022/10/29 03:15:00;;;;;;;24.90;9.57;;;13.00;99.90;;;;;;5053173;28;20316;-80
2022/10/29 03:17:27;;;;;;;25.50;9.90;;;13.00;99.90;;;;;;5047328;28;20201;-80
2022/10/29 03:19:58;;;;;;;21.47;9.27;;;12.90;99.90;;;;;;5053744;28;20225;-81
2022/10/29 03:22:24;;;;;;;24.70;11.03;;;12.90;99.90;;;;;;5064961;28;20190;-82
2022/10/29 03:24:52;;;;;;;30.43;11.30;;;12.90;99.90;;;;;;5070349;28;20189;-83
2022/10/29 03:27:20;;;;;;;25.67;10.30;;;12.90;99.90;;;;;;5063559;28;20234;-81
2022/10/29 03:29:47;;;;;;;24.23;9.73;;;12.90;99.90;;;;;;5077087;28;20264;-84
2022/10/29 03:32:19;;;;;;;37.93;11.37;;;12.80;99.90;;;;;;5072533;28;20197;-81
2022/10/29 03:34:47;;;;;;;23.37;10.27;;;12.80;99.90;;;;;;5062370;28;20316;-81
2022/10/29 03:37:15;;;;;;;27.50;11.10;;;12.80;99.90;;;;;;5036623;28;20236;-80
2022/10/29 03:39:42;;;;;;;23.30;10.57;;;12.80;99.90;;;;;;5037370;28;20206;-82
2022/10/29 03:42:08;;;;;;;22.83;9.77;;;12.80;99.90;;;;;;5059542;28;20264;-82
2022/10/29 03:44:38;;;;;;;31.43;12.93;;;12.70;99.90;;;;;;5042406;28;20205;-81
2022/10/29 03:47:08;;;;;;;29.03;10.97;;;12.70;99.90;;;;;;5036288;28;20284;-81
2022/10/29 03:49:34;;;;;;;27.87;12.17;;;12.70;99.90;;;;;;5043288;28;20701;-81
2022/10/29 03:52:01;;;;;;;26.67;12.03;;;12.70;99.90;;;;;;5049751;28;20280;-81
2022/10/29 03:54:28;;;;;;;28.47;11.73;;;12.70;99.90;;;;;;5033930;28;20255;-83
2022/10/29 03:56:55;;;;;;;31.33;12.30;;;12.70;99.90;;;;;;5049500;28;20285;-81
2022/10/29 03:59:21;;;;;;;40.63;12.07;;;12.60;99.90;;;;;;5050292;28;20213;-81
2022/10/29 04:01:51;;;;;;;36.77;12.93;;;12.70;99.90;;;;;;5055402;28;20292;-81
2022/10/29 04:04:18;;;;;;;35.47;13.10;;;12.60;99.90;;;;;;5037591;28;20277;-82
2022/10/29 04:06:49;;;;;;;46.67;15.60;;;12.70;99.90;;;;;;5032176;28;20683;-81
2022/10/29 04:09:18;;;;;;;41.00;14.63;;;12.70;99.90;;;;;;5038676;28;20238;-81
2022/10/29 04:11:45;;;;;;;42.00;15.93;;;12.70;99.90;;;;;;5055185;28;20219;-81
2022/10/29 04:14:15;;;;;;;44.17;16.63;;;12.80;99.90;;;;;;5056230;28;20204;-81
2022/10/29 04:16:43;;;;;;;45.40;16.63;;;12.70;99.90;;;;;;5056603;28;20252;-82
2022/10/29 04:19:15;;;;;;;51.27;17.67;;;12.80;99.90;;;;;;5058265;28;20225;-83
2022/10/29 04:21:42;;;;;;;44.13;16.07;;;12.80;99.90;;;;;;5033511;28;20686;-82
2022/10/29 04:24:29;;;;;;;41.43;16.03;;;13.00;99.90;;;;;;5053531;28;20237;-81
2022/10/29 04:27:16;;;;;;;40.10;17.30;;;12.80;99.90;;;;;;5052204;28;20316;-82
2022/10/29 04:30:03;;;;;;;42.70;16.97;;;12.90;99.90;;;;;;5053356;28;20317;-82
2022/10/29 04:32:30;;;;;;;38.43;16.60;;;12.90;99.90;;;;;;5057776;28;20201;-81
2022/10/29 04:35:04;;;;;;;43.50;17.40;;;12.90;99.90;;;;;;5062228;28;20619;-81
2022/10/29 04:37:37;;;;;;;40.40;16.00;;;12.90;99.90;;;;;;5052969;28;20213;-80
2022/10/29 04:40:06;;;;;;;41.10;18.13;;;13.00;99.90;;;;;;5055535;28;20240;-81
2022/10/29 04:42:41;;;;;;;38.83;17.23;;;12.90;99.90;;;;;;5052663;28;20575;-81
2022/10/29 04:45:08;;;;;;;33.27;16.10;;;13.00;99.90;;;;;;5055285;28;20240;-81
2022/10/29 04:47:38;;;;;;;47.17;18.87;;;13.00;99.90;;;;;;5060964;28;20271;-82
2022/10/29 04:50:05;;;;;;;53.10;18.93;;;13.00;99.90;;;;;;5062721;28;20731;-81
2022/10/29 04:52:32;;;;;;;42.57;17.87;;;13.00;99.90;;;;;;5057409;28;20248;-81
2022/10/29 04:54:58;;;;;;;41.97;18.40;;;13.00;99.90;;;;;;5047826;28;20225;-80
2022/10/29 04:57:28;;;;;;;50.47;19.03;;;13.00;99.90;;;;;;5034937;28;20189;-82
2022/10/29 04:59:59;;;;;;;55.47;17.97;;;13.10;99.90;;;;;;5054725;28;20300;-81
2022/10/29 05:02:25;;;;;;;78.87;19.73;;;13.10;99.90;;;;;;5035915;28;20203;-82
2022/10/29 05:04:52;;;;;;;42.73;17.40;;;13.10;99.90;;;;;;5047169;28;20348;-80
2022/10/29 05:07:19;;;;;;;52.80;18.57;;;13.20;99.90;;;;;;5032770;28;20197;-81
2022/10/29 05:09:45;;;;;;;48.17;19.10;;;13.10;99.90;;;;;;5051633;28;20201;-82
2022/10/29 05:12:12;;;;;;;53.47;18.53;;;13.10;99.90;;;;;;5062581;28;20203;-82
2022/10/29 05:14:39;;;;;;;61.97;18.93;;;13.00;99.90;;;;;;5046707;28;20229;-81
2022/10/29 05:17:06;;;;;;;56.80;19.20;;;13.10;99.90;;;;;;5059920;28;20212;-82
2022/10/29 05:19:37;;;;;;;56.67;20.23;;;13.00;99.90;;;;;;5047409;28;20614;-81
2022/10/29 05:22:04;;;;;;;37.87;17.47;;;13.00;99.90;;;;;;5030874;28;20208;-81
2022/10/29 05:24:35;;;;;;;39.60;18.30;;;13.00;99.90;;;;;;5049002;28;20198;-81
2022/10/29 05:27:04;;;;;;;40.17;18.90;;;13.00;99.90;;;;;;5034594;28;20275;-81
2022/10/29 05:29:33;;;;;;;40.27;18.63;;;13.00;99.90;;;;;;5028754;28;20233;-81
2022/10/29 05:32:11;;;;;;;38.33;17.80;;;13.00;99.90;;;;;;5056543;28;20284;-80
2022/10/29 05:34:38;;;;;;;41.10;17.57;;;13.00;99.90;;;;;;5050653;28;20267;-81
2022/10/29 05:37:11;;;;;;;39.93;18.03;;;13.00;99.90;;;;;;5053683;28;20206;-81
2022/10/29 05:39:41;;;;;;;52.63;19.73;;;13.00;99.90;;;;;;5056178;28;20220;-82
2022/10/29 05:42:08;;;;;;;90.77;22.23;;;13.00;99.90;;;;;;5063003;28;20232;-82
2022/10/29 05:44:35;;;;;;;41.97;18.30;;;13.10;99.90;;;;;;5038579;28;20206;-82
2022/10/29 05:47:02;;;;;;;55.43;17.67;;;13.10;99.90;;;;;;5045775;28;20220;-80
2022/10/29 05:49:29;;;;;;;51.70;17.40;;;13.00;99.90;;;;;;5047939;28;20272;-79
2022/10/29 05:51:55;;;;;;;67.97;21.93;;;13.10;99.90;;;;;;5027021;28;20204;-81
2022/10/29 05:54:22;;;;;;;62.80;20.33;;;13.10;99.90;;;;;;5047153;28;20572;-81
2022/10/29 05:56:49;;;;;;;61.43;21.33;;;13.10;99.90;;;;;;5045778;28;20319;-81
2022/10/29 05:59:18;;;;;;;56.97;20.77;;;13.10;99.90;;;;;;5050656;28;20197;-81
2022/10/29 06:01:45;;;;;;;45.50;20.07;;;13.10;99.90;;;;;;5048160;28;20670;-82
2022/10/29 06:04:12;;;;;;;42.53;20.40;;;13.10;99.90;;;;;;5045959;28;20221;-81
2022/10/29 06:06:39;;;;;;;49.10;20.77;;;13.10;99.90;;;;;;5051274;28;20618;-80
2022/10/29 06:09:06;;;;;;;44.77;22.00;;;13.50;99.90;;;;;;5030129;28;20225;-80
2022/10/29 06:11:33;;;;;;;40.40;20.00;;;13.10;99.90;;;;;;5042040;28;20208;-80
2022/10/29 06:14:03;;;;;;;37.20;19.83;;;13.20;99.90;;;;;;5047601;28;20201;-79
2022/10/29 06:16:31;;;;;;;34.23;19.10;;;13.20;99.90;;;;;;5042825;28;20755;-81
2022/10/29 06:18:58;;;;;;;33.40;19.00;;;13.20;99.90;;;;;;5048511;28;20210;-80
2022/10/29 06:21:25;;;;;;;35.40;18.33;;;13.30;99.90;;;;;;5046322;28;20268;-80
2022/10/29 06:23:53;;;;;;;28.03;17.17;;;13.30;99.90;;;;;;5058723;28;20224;-80
2022/10/29 06:26:19;;;;;;;29.47;17.60;;;13.30;99.90;;;;;;5047667;28;20208;-81
2022/10/29 06:28:49;;;;;;;30.97;17.53;;;13.30;99.90;;;;;;5061508;28;20221;-79
2022/10/29 06:31:17;;;;;;;33.20;18.77;;;13.30;99.90;;;;;;5057407;28;20272;-80
2022/10/29 06:33:48;;;;;;;33.73;19.03;;;13.40;99.90;;;;;;5071489;28;20216;-80
2022/10/29 06:36:17;;;;;;;31.50;18.33;;;13.30;99.90;;;;;;5071588;28;20200;-80
2022/10/29 06:38:45;;;;;;;31.63;18.57;;;13.40;99.90;;;;;;5050791;28;20248;-79
2022/10/29 06:41:12;;;;;;;34.13;18.47;;;13.50;99.90;;;;;;5067123;28;20201;-81
2022/10/29 06:43:39;;;;;;;35.80;18.33;;;13.30;99.90;;;;;;5048398;28;20223;-80
2022/10/29 06:46:07;;;;;;;36.57;19.20;;;13.50;99.90;;;;;;5043576;28;20200;-81
2022/10/29 06:48:34;;;;;;;39.33;19.83;;;13.40;99.90;;;;;;5060254;28;20213;-83
2022/10/29 06:51:03;;;;;;;43.10;21.07;;;13.50;99.90;;;;;;5054581;28;20392;-82
2022/10/29 06:53:30;;;;;;;35.17;19.60;;;13.60;99.90;;;;;;5051385;28;20228;-81
2022/10/29 06:55:58;;;;;;;41.83;22.07;;;13.60;99.90;;;;;;5074405;28;20294;-82
2022/10/29 06:58:26;;;;;;;42.33;21.07;;;13.60;99.90;;;;;;5051213;28;20523;-81
2022/10/29 07:00:53;;;;;;;43.80;21.93;;;13.60;99.90;;;;;;5036702;28;20193;-80
2022/10/29 07:03:22;;;;;;;47.23;22.70;;;13.70;99.90;;;;;;5070498;28;20201;-81
2022/10/29 07:05:58;;;;;;;45.23;22.17;;;13.70;99.90;;;;;;5054737;28;20213;-80
2022/10/29 07:08:37;;;;;;;38.77;22.50;;;13.80;99.90;;;;;;5071399;28;20235;-82
2022/10/29 07:11:04;;;;;;;36.60;21.13;;;13.80;99.90;;;;;;5052126;28;20228;-79
2022/10/29 07:13:31;;;;;;;35.73;19.93;;;13.80;99.90;;;;;;5049590;28;20218;-80
2022/10/29 07:15:58;;;;;;;33.27;19.23;;;13.90;99.90;;;;;;5049877;28;20225;-82
2022/10/29 07:18:24;;;;;;;44.17;21.00;;;13.90;99.90;;;;;;5072842;28;20215;-81
2022/10/29 07:20:51;;;;;;;35.00;19.43;;;13.90;99.90;;;;;;5069183;28;20234;-82
2022/10/29 07:23:18;;;;;;;34.83;19.57;;;13.90;99.90;;;;;;5073278;28;20210;-82
2022/10/29 07:25:52;;;;;;;37.33;20.80;;;14.00;99.90;;;;;;5052072;28;20288;-79
2022/10/29 07:28:21;;;;;;;37.80;19.87;;;14.00;99.90;;;;;;5066355;28;20241;-81
2022/10/29 07:30:51;;;;;;;37.73;21.17;;;14.00;99.90;;;;;;5061428;28;20209;-83
2022/10/29 07:33:18;;;;;;;41.30;21.90;;;14.00;99.90;;;;;;5033205;28;20201;-81
2022/10/29 07:35:46;;;;;;;41.23;23.20;;;14.00;99.90;;;;;;5067217;28;20267;-81
2022/10/29 07:38:13;;;;;;;46.70;25.17;;;14.00;99.90;;;;;;5055263;28;20197;-81
2022/10/29 07:40:47;;;;;;;44.37;25.20;;;13.90;99.90;;;;;;5061607;28;20205;-82
2022/10/29 07:43:14;;;;;;;47.33;24.57;;;14.10;99.90;;;;;;5061793;28;20206;-81
2022/10/29 07:45:44;;;;;;;45.60;25.03;;;14.10;99.90;;;;;;5043023;28;20683;-82
2022/10/29 07:48:11;;;;;;;47.10;24.63;;;14.10;99.90;;;;;;5040452;28;20225;-83
2022/10/29 07:50:41;;;;;;;47.90;24.93;;;14.20;99.90;;;;;;5040980;28;20846;-82
2022/10/29 07:53:09;;;;;;;49.00;24.77;;;14.20;99.90;;;;;;5061900;28;20221;-81
2022/10/29 07:55:36;;;;;;;51.53;25.63;;;14.30;99.90;;;;;;5063298;28;20209;-81
2022/10/29 07:58:06;;;;;;;47.33;25.13;;;14.30;99.90;;;;;;5050407;28;20238;-83
2022/10/29 08:00:36;;;;;;;41.07;23.77;;;14.40;99.90;;;;;;5060586;28;20268;-82
2022/10/29 08:03:04;;;;;;;49.87;24.63;;;14.40;99.90;;;;;;5050655;28;20224;-82
2022/10/29 08:05:31;;;;;;;44.20;24.13;;;14.40;99.90;;;;;;5069534;28;20213;-81
2022/10/29 08:07:58;;;;;;;47.13;25.13;;;14.50;99.90;;;;;;5061535;28;20217;-83
2022/10/29 08:10:30;;;;;;;46.83;25.70;;;14.60;99.90;;;;;;5047416;28;20209;-81
2022/10/29 08:13:02;;;;;;;49.97;24.13;;;14.60;99.90;;;;;;5054609;28;20737;-82
2022/10/29 08:15:31;;;;;;;42.57;25.17;;;14.70;99.90;;;;;;5060830;28;20241;-83
2022/10/29 08:17:58;;;;;;;45.57;25.37;;;14.80;99.90;;;;;;5032858;28;20589;-83
2022/10/29 08:20:27;;;;;;;49.80;26.97;;;15.00;99.90;;;;;;5064892;28;20229;-81
2022/10/29 08:22:59;;;;;;;49.38;25.63;;;15.10;99.90;;;;;;5058122;28;20201;-81
2022/10/29 08:25:27;;;;;;;44.63;25.57;;;15.10;99.90;;;;;;5039525;28;20197;-82
2022/10/29 08:28:02;;;;;;;40.10;23.93;;;15.20;99.90;;;;;;5039400;28;20248;-82
2022/10/29 08:30:31;;;;;;;41.17;25.55;;;15.40;99.90;;;;;;5055979;28;20206;-80
2022/10/29 08:32:59;;;;;;;44.70;26.02;;;15.50;99.90;;;;;;5039030;28;20213;-82
2022/10/29 08:35:27;;;;;;;42.95;25.17;;;15.60;99.90;;;;;;5037383;28;20213;-80
2022/10/29 08:37:55;;;;;;;42.63;25.48;;;15.80;99.90;;;;;;5045872;28;20194;-82
2022/10/29 08:40:27;;;;;;;43.70;25.02;;;15.90;99.90;;;;;;5034976;28;20273;-71
2022/10/29 08:43:17;;;;;;;41.65;25.48;;;15.90;99.90;;;;;;5044039;28;20689;-71
2022/10/29 08:45:52;;;;;;;48.47;25.98;;;16.00;99.90;;;;;;5043108;28;20770;-71
2022/10/29 08:48:37;;;;;;;40.92;24.88;;;16.20;99.90;;;;;;5024984;28;20272;-71
2022/10/29 08:51:14;;;;;;;40.42;24.27;;;16.20;99.90;;;;;;5049152;28;20255;-72
2022/10/29 08:53:48;;;;;;;41.00;25.52;;;16.30;99.90;;;;;;5031021;28;20205;-71
2022/10/29 08:56:37;;;;;;;46.28;25.27;;;16.40;99.90;;;;;;5024421;28;20243;-71
2022/10/29 08:59:22;;;;;;;56.28;27.08;;;16.50;99.90;;;;;;5046804;28;20363;-71
2022/10/29 09:01:52;;;;;;;39.92;25.60;;;16.50;99.90;;;;;;5048732;28;20232;-70
2022/10/29 09:04:31;;;;;;;43.03;25.23;;;16.70;99.90;;;;;;5047063;28;20661;-71
2022/10/29 09:07:07;;;;;;;43.70;24.85;;;16.80;99.90;;;;;;5041022;28;20227;-71
2022/10/29 09:09:40;;;;;;;40.35;23.77;;;16.90;99.90;;;;;;5041071;28;20224;-71
2022/10/29 09:12:25;;;;;;;43.03;25.23;;;17.00;99.90;;;;;;5040335;28;20228;-71
2022/10/29 09:15:14;;;;;;;43.13;24.20;;;17.20;99.90;;;;;;5052380;28;20984;-71
2022/10/29 09:17:59;;;;;;;49.30;25.42;;;17.30;99.90;;;;;;5048041;28;20279;-71
2022/10/29 09:20:32;;;;;;;41.67;23.65;;;17.40;99.90;;;;;;5028611;28;20242;-71
2022/10/29 09:23:19;;;;;;;40.33;24.02;;;17.60;99.90;;;;;;5045613;28;20209;-71
2022/10/29 09:26:04;;;;;;;35.92;22.58;;;17.70;99.90;;;;;;5044166;28;20614;-71
2022/10/29 09:28:53;;;;;;;38.88;21.10;;;17.80;99.90;;;;;;5040809;28;20213;-70
2022/10/29 09:31:43;;;;;;;36.83;20.73;;;17.90;99.90;;;;;;5024010;28;20210;-70
2022/10/29 09:34:36;;;;;;;35.20;19.90;;;18.00;99.90;;;;;;5040489;28;20209;-71
2022/10/29 09:37:44;;;;;;;33.72;20.73;;;18.10;99.90;;;;;;5038742;28;20217;-70
2022/10/29 09:40:32;;;;;;;33.75;19.60;;;18.30;99.90;;;;;;5023527;28;20233;-71
2022/10/29 09:43:05;;;;;;;28.80;18.75;;;18.40;99.90;;;;;;5047371;28;20430;-71
2022/10/29 09:45:48;;;;;;;31.58;18.75;;;18.40;99.90;;;;;;5042889;28;20229;-71
2022/10/29 09:48:54;;;;;;;30.77;16.88;;;18.50;99.90;;;;;;5047298;28;20573;-71
2022/10/29 09:51:41;;;;;;;32.05;18.85;;;18.60;99.90;;;;;;5044680;28;20304;-72
2022/10/29 09:54:08;;;;;;;27.75;16.60;;;18.60;99.90;;;;;;5047886;28;20300;-71
2022/10/29 09:56:40;;;;;;;33.63;17.17;;;18.70;99.90;;;;;;5045831;28;20219;-71
2022/10/29 09:59:20;;;;;;;31.08;17.65;;;18.80;99.90;;;;;;5038769;28;20300;-71
2022/10/29 10:01:47;;;;;;;31.70;16.88;;;18.80;99.90;;;;;;5045640;28;20208;-71
2022/10/29 10:04:44;;;;;;;30.48;17.10;;;18.80;99.90;;;;;;5041105;28;20205;-70
2022/10/29 10:07:16;;;;;;;32.28;17.35;;;18.80;99.90;;;;;;5046395;28;20248;-72
2022/10/29 10:09:53;;;;;;;27.77;16.20;;;18.90;99.90;;;;;;5048482;28;20688;-71
2022/10/29 10:12:23;;;;;;;27.13;15.75;;;19.00;99.90;;;;;;5036632;28;20193;-71
2022/10/29 10:15:02;;;;;;;28.60;17.08;;;19.00;99.90;;;;;;5021568;28;20217;-71
2022/10/29 10:17:57;;;;;;;31.95;17.50;;;19.10;99.90;;;;;;5045010;28;20205;-72
2022/10/29 10:20:27;;;;;;;29.10;15.85;;;19.10;99.90;;;;;;5035632;28;20565;-72
2022/10/29 10:22:54;;;;;;;29.70;16.15;;;19.10;99.90;;;;;;5037721;28;20212;-71
2022/10/29 10:25:39;;;;;;;25.73;16.33;;;19.20;99.90;;;;;;5039541;28;20606;-72
2022/10/29 10:28:19;;;;;;;27.85;16.75;;;19.20;99.90;;;;;;5026987;28;20240;-71
2022/10/29 10:31:04;;;;;;;26.85;15.23;;;19.20;99.90;;;;;;5028316;28;20315;-71
2022/10/29 10:33:33;;;;;;;30.92;15.23;;;19.20;99.90;;;;;;5042181;28;20205;-71
2022/10/29 10:36:04;;;;;;;24.65;15.13;;;19.20;99.90;;;;;;5045881;28;20307;-71
2022/10/29 10:38:46;;;;;;;24.48;14.73;;;19.20;99.90;;;;;;5040124;28;20300;-71
2022/10/29 10:41:15;;;;;;;24.02;14.30;;;19.20;99.90;;;;;;5032560;28;20205;-71
2022/10/29 10:43:45;;;;;;;22.00;14.98;;;19.20;99.90;;;;;;5042795;28;20203;-71
2022/10/29 10:46:26;;;;;;;27.05;14.38;;;19.20;99.90;;;;;;5039382;28;20209;-71
2022/10/29 10:49:12;;;;;;;26.30;14.27;;;19.30;99.90;;;;;;5039032;28;20201;-70
2022/10/29 10:51:45;;;;;;;25.23;14.32;;;19.30;99.90;;;;;;5045520;28;20224;-70
2022/10/29 10:54:32;;;;;;;28.10;14.95;;;19.30;99.90;;;;;;5040148;28;20232;-70
2022/10/29 10:57:00;;;;;;;27.40;14.70;;;19.40;99.90;;;;;;5037789;28;20563;-70
2022/10/29 10:59:43;;;;;;;28.63;14.95;;;19.40;99.90;;;;;;5042603;28;20227;-71
2022/10/29 11:02:30;;;;;;;24.58;13.63;;;19.50;99.90;;;;;;5039283;28;20653;-71
2022/10/29 11:05:17;;;;;;;22.55;14.65;;;19.50;99.90;;;;;;5027431;28;20576;-71
2022/10/29 11:08:05;;;;;;;28.23;15.38;;;19.60;99.90;;;;;;5042753;28;20219;-71
2022/10/29 11:11:02;;;;;;;28.88;16.02;;;19.60;99.90;;;;;;5034695;28;20669;-73
2022/10/29 11:13:32;;;;;;;26.02;14.13;;;19.60;99.90;;;;;;5038800;28;20289;-71
2022/10/29 11:16:26;;;;;;;26.65;14.25;;;19.60;99.90;;;;;;5044412;28;20351;-71
2022/10/29 11:19:09;;;;;;;25.27;14.85;;;19.60;99.90;;;;;;5040976;28;20205;-70
2022/10/29 11:21:54;;;;;;;24.45;14.05;;;19.70;99.90;;;;;;5045259;28;20214;-70
2022/10/29 11:24:24;;;;;;;21.27;13.63;;;19.80;99.90;;;;;;5047660;28;20205;-70
2022/10/29 11:27:03;;;;;;;25.35;12.80;;;19.70;99.90;;;;;;5044562;28;20201;-71
2022/10/29 11:29:37;;;;;;;25.50;14.68;;;19.90;99.90;;;;;;5040976;28;20220;-71
2022/10/29 11:32:28;;;;;;;24.05;14.40;;;20.00;99.90;;;;;;5046717;28;20292;-72
2022/10/29 11:35:25;;;;;;;22.48;13.00;;;20.10;99.90;;;;;;5045745;28;20292;-70
2022/10/29 11:37:57;;;;;;;22.10;12.82;;;20.20;99.90;;;;;;5034718;28;20718;-71
2022/10/29 11:40:50;;;;;;;23.98;13.43;;;20.20;99.90;;;;;;5045447;28;20201;-71
2022/10/29 11:43:19;;;;;;;21.83;12.40;;;20.20;99.90;;;;;;5042549;28;20591;-70
2022/10/29 11:45:58;;;;;;;21.33;11.80;;;20.30;99.90;;;;;;5047066;28;20285;-71
2022/10/29 11:48:55;;;;;;;22.52;12.25;;;20.30;99.90;;;;;;5041677;28;20251;-71
2022/10/29 11:51:53;;;;;;;22.35;11.43;;;20.50;99.90;;;;;;5042282;28;20588;-70
2022/10/29 11:54:56;;;;;;;25.10;11.85;;;20.70;99.90;;;;;;5042223;28;20210;-72
2022/10/29 11:57:45;;;;;;;22.85;11.55;;;20.90;99.90;;;;;;4944205;28;20204;-71
2022/10/29 12:00:19;;;;;;;23.88;11.65;;;21.00;99.90;;;;;;5040867;28;20236;-72
2022/10/29 12:03:24;;;;;;;22.05;11.82;;;21.10;99.90;;;;;;5042258;28;20637;-72
2022/10/29 12:06:20;;;;;;;20.73;10.70;;;21.30;99.90;;;;;;5045109;28;20263;-71
2022/10/29 12:09:12;;;;;;;19.92;10.88;;;21.30;99.90;;;;;;5047727;28;20220;-73
2022/10/29 12:11:52;;;;;;;21.75;10.35;;;21.30;99.90;;;;;;5028588;28;20200;-71
2022/10/29 12:14:47;;;;;;;18.25;10.65;;;21.30;99.90;;;;;;5041380;28;20291;-72
2022/10/29 12:17:21;;;;;;;17.75;10.70;;;21.30;99.90;;;;;;5030015;28;20313;-71
2022/10/29 12:19:59;;;;;;;22.45;10.93;;;21.20;99.90;;;;;;5044481;28;20292;-72
2022/10/29 12:22:25;;;;;;;17.45;9.95;;;21.20;99.90;;;;;;5045379;28;20304;-72
2022/10/29 12:25:04;;;;;;;21.95;11.20;;;21.10;99.90;;;;;;5031572;28;20607;-71
2022/10/29 12:27:46;;;;;;;18.83;10.18;;;21.20;99.90;;;;;;5048861;28;20213;-71
2022/10/29 12:30:16;;;;;;;18.77;10.63;;;21.10;99.90;;;;;;5041726;28;20228;-72
2022/10/29 12:33:00;;;;;;;19.15;10.43;;;21.20;99.90;;;;;;5042321;28;20465;-72
2022/10/29 12:35:37;;;;;;;22.45;10.40;;;21.30;99.90;;;;;;5040214;28;20300;-71
2022/10/29 12:38:04;;;;;;;20.05;9.60;;;21.40;99.90;;;;;;5047546;28;20196;-71
2022/10/29 12:40:36;;;;;;;19.83;10.05;;;21.50;99.90;;;;;;5046825;28;20197;-70
2022/10/29 12:43:09;;;;;;;19.80;9.35;;;21.70;99.90;;;;;;5030463;28;20204;-71
2022/10/29 12:46:04;;;;;;;18.60;9.27;;;21.70;99.90;;;;;;5028058;28;20224;-72
2022/10/29 12:49:19;;;;;;;18.25;9.32;;;21.80;99.90;;;;;;5028069;28;20220;-71
2022/10/29 12:51:53;;;;;;;15.82;8.45;;;21.90;99.90;;;;;;5040471;28;20213;-71
2022/10/29 12:54:48;;;;;;;17.85;9.60;;;21.90;99.90;;;;;;5045793;28;20581;-71
2022/10/29 12:57:15;;;;;;;17.42;9.68;;;22.00;99.90;;;;;;5048114;28;20203;-70
2022/10/29 12:59:43;;;;;;;16.42;9.73;;;22.10;99.90;;;;;;5041112;28;20197;-70
2022/10/29 13:02:34;;;;;;;19.15;9.50;;;22.00;99.90;;;;;;5038742;28;20301;-71
2022/10/29 13:05:10;;;;;;;19.40;9.10;;;22.00;99.90;;;;;;5043469;28;20324;-71